Time;durP1;ratioP1;P1;durP2;ratioP2;P2;SDS_P1;SDS_P2;PMS_P1;PMS_P2;Temp;Humidity;BMP_temperature;BMP_pressure;BME280_temperature;BME280_humidity;BME280_pressure;Samples;Min_cycle;Max_cycle;Signal;HPM_P1;HPM_P2
2023/01/08 00:31:47;;;;;;;63.78;23.50;;;6.40;99.90;;;;;;4967369;23;20056;-82
2023/01/08 00:34:13;;;;;;;;;;;6.40;99.90;;;;;;4963482;29;20088;-84
2023/01/08 00:36:38;;;;;;;61.42;23.15;;;6.40;99.90;;;;;;4946544;29;19911;-83
2023/01/08 00:39:04;;;;;;;;;;;6.30;99.90;;;;;;4963467;29;20035;-84
2023/01/08 00:41:30;;;;;;;68.70;26.60;;;6.20;99.90;;;;;;4963082;29;19902;-84
2023/01/08 00:43:56;;;;;;;;;;;6.20;99.90;;;;;;4963264;29;20034;-83
2023/01/08 00:46:21;;;;;;;61.88;25.08;;;6.20;99.90;;;;;;4946355;29;19946;-83
2023/01/08 00:48:47;;;;;;;;;;;6.20;99.90;;;;;;4946779;29;20028;-84
2023/01/08 00:51:16;;;;;;;64.03;25.90;;;6.20;99.90;;;;;;4963308;29;19922;-83
2023/01/08 00:53:42;;;;;;;57.05;24.35;;;6.30;99.90;;;;;;4946764;29;20020;-84
2023/01/08 00:56:09;;;;;;;;;;;6.20;99.90;;;;;;4963373;29;20016;-83
2023/01/08 02:30:55;;;;;;;48.40;22.88;;;6.40;99.90;;;;;;5121113;23;20123;-84
2023/01/08 02:33:25;;;;;;;57.00;25.52;;;6.30;99.90;;;;;;4959123;29;20059;-83
2023/01/08 02:36:10;;;;;;;56.17;26.25;;;6.30;99.90;;;;;;4959959;29;20012;-83
2023/01/08 02:38:41;;;;;;;54.40;23.85;;;6.30;99.90;;;;;;4960118;29;20084;-83
2023/01/08 02:41:11;;;;;;;49.08;24.27;;;6.40;99.90;;;;;;4961015;29;20096;-84
2023/01/08 02:43:37;;;;;;;53.95;25.60;;;6.50;99.90;;;;;;4960655;29;20039;-82
2023/01/08 02:46:03;;;;;;;;;;;6.30;99.90;;;;;;4961136;29;20027;-83
2023/01/08 02:48:44;;;;;;;54.35;25.95;;;6.30;99.90;;;;;;4960627;29;19931;-83
2023/01/08 02:51:18;;;;;;;52.85;25.38;;;6.20;99.90;;;;;;4960575;29;20035;-83
2023/01/08 02:53:48;;;;;;;44.42;24.20;;;6.20;99.90;;;;;;4960920;29;20019;-83
2023/01/08 02:56:19;;;;;;;44.67;25.13;;;6.30;99.90;;;;;;4960844;29;20038;-84
2023/01/08 02:58:47;;;;;;;52.85;26.48;;;6.30;99.90;;;;;;4960397;29;20016;-82
2023/01/08 03:01:15;;;;;;;49.65;25.30;;;6.30;99.90;;;;;;4960562;29;20043;-82
2023/01/08 03:03:46;;;;;;;50.95;26.13;;;6.20;99.90;;;;;;4960044;29;20031;-81
2023/01/08 03:06:17;;;;;;;51.22;26.70;;;6.30;99.90;;;;;;4960570;29;20043;-83
2023/01/08 03:08:49;;;;;;;47.35;24.70;;;6.20;99.90;;;;;;4960582;29;20035;-83
2023/01/08 03:11:18;;;;;;;58.78;30.98;;;6.30;99.90;;;;;;4960596;29;20020;-82
2023/01/08 03:13:55;;;;;;;50.08;26.83;;;6.30;99.90;;;;;;4960480;29;20032;-81
2023/01/08 03:16:40;;;;;;;55.90;29.00;;;6.30;99.90;;;;;;4960665;29;20043;-82
2023/01/08 03:19:14;;;;;;;58.92;29.88;;;6.20;99.90;;;;;;4960528;29;20015;-83
2023/01/08 03:21:43;;;;;;;45.58;24.42;;;6.30;99.90;;;;;;4960516;29;20035;-81
2023/01/08 03:24:14;;;;;;;50.50;27.25;;;6.40;99.90;;;;;;4959999;29;20576;-81
2023/01/08 03:26:42;;;;;;;55.72;26.92;;;6.40;99.90;;;;;;4960264;29;20012;-81
2023/01/08 03:29:12;;;;;;;54.17;27.00;;;6.40;99.90;;;;;;4960168;29;20028;-82
2023/01/08 03:31:40;;;;;;;60.10;27.77;;;6.40;99.90;;;;;;4965629;28;20059;-82
2023/01/08 03:34:07;;;;;;;61.40;26.88;;;6.40;99.90;;;;;;4979791;28;20042;-83
2023/01/08 03:36:35;;;;;;;61.30;27.83;;;6.40;99.90;;;;;;4979256;28;20091;-81
2023/01/08 03:39:11;;;;;;;66.32;28.83;;;6.40;99.90;;;;;;4963077;28;20032;-83
2023/01/08 03:41:37;;;;;;;62.15;31.98;;;6.30;99.90;;;;;;4963279;29;20039;-83
2023/01/08 03:44:03;;;;;;;52.95;30.60;;;6.30;99.90;;;;;;4979824;28;20120;-83
2023/01/08 03:46:32;;;;;;;;;;;6.20;99.90;;;;;;4963405;29;20019;-83
2023/01/08 03:49:00;;;;;;;50.47;26.20;;;6.20;99.90;;;;;;4962889;28;20020;-82
2023/01/08 03:51:26;;;;;;;51.35;26.80;;;6.30;99.90;;;;;;4979508;28;20043;-83
2023/01/08 03:53:53;;;;;;;;;;;6.30;99.90;;;;;;4963108;29;20024;-84
2023/01/08 03:56:18;;;;;;;;;;;6.20;99.90;;;;;;4980077;28;19911;-83
2023/01/08 03:58:45;;;;;;;56.28;26.10;;;6.20;99.90;;;;;;4962705;29;19902;-84
2023/01/08 04:01:10;;;;;;;56.85;28.17;;;6.10;99.90;;;;;;4962672;29;20031;-82
2023/01/08 04:03:36;;;;;;;;;;;6.00;99.90;;;;;;4964610;29;20071;-82
2023/01/08 04:06:02;;;;;;;52.33;27.10;;;6.00;99.90;;;;;;4966212;28;19906;-83
2023/01/08 04:08:28;;;;;;;;;;;6.10;99.90;;;;;;4966482;29;20043;-81
2023/01/08 04:10:54;;;;;;;52.63;27.10;;;6.10;99.90;;;;;;4982383;28;19972;-82
2023/01/08 04:13:19;;;;;;;;;;;6.10;99.90;;;;;;4983226;28;20019;-83
2023/01/08 04:15:49;;;;;;;55.83;25.45;;;6.20;99.90;;;;;;4982238;28;19910;-82
2023/01/08 04:18:16;;;;;;;55.40;27.70;;;6.10;99.90;;;;;;4965603;28;20019;-82
2023/01/08 04:20:46;;;;;;;48.90;25.58;;;6.20;99.90;;;;;;4965961;28;20019;-83
2023/01/08 04:23:12;;;;;;;52.50;27.63;;;6.30;99.90;;;;;;4966120;29;20058;-80
2023/01/08 04:25:38;;;;;;;52.80;27.58;;;6.30;99.90;;;;;;4982915;28;20035;-81
2023/01/08 04:28:04;;;;;;;;;;;6.20;99.90;;;;;;4983661;28;20034;-83
2023/01/08 04:30:30;;;;;;;55.10;28.00;;;6.20;99.90;;;;;;4966086;29;19907;-82
2023/01/08 04:32:55;;;;;;;;;;;6.20;99.90;;;;;;4966733;28;20043;-82
2023/01/08 04:35:24;;;;;;;58.95;28.45;;;6.10;99.90;;;;;;4966584;28;19895;-83
2023/01/08 04:37:50;;;;;;;59.95;29.70;;;6.10;99.90;;;;;;4966727;28;20110;-83
2023/01/08 04:40:16;;;;;;;;;;;6.00;99.90;;;;;;4966894;28;20035;-82
2023/01/08 04:42:41;;;;;;;59.15;27.08;;;5.90;99.90;;;;;;4966497;28;19901;-81
2023/01/08 04:45:07;;;;;;;;;;;5.90;99.90;;;;;;4966528;28;20055;-80
2023/01/08 04:47:33;;;;;;;52.67;25.10;;;5.90;99.90;;;;;;4982970;28;19906;-82
2023/01/08 04:49:59;;;;;;;;;;;5.90;99.90;;;;;;4983372;28;20034;-80
2023/01/08 04:52:26;;;;;;;55.67;25.48;;;5.80;99.90;;;;;;4982829;28;19957;-83
2023/01/08 04:54:52;;;;;;;53.30;25.90;;;5.90;99.90;;;;;;4982319;28;20039;-82
2023/01/08 04:57:18;;;;;;;;;;;6.10;99.90;;;;;;4966423;28;20023;-80
2023/01/08 04:59:43;;;;;;;57.60;26.35;;;6.00;99.90;;;;;;4966075;28;19902;-82
2023/01/08 05:02:09;;;;;;;;;;;6.00;99.90;;;;;;4966566;28;20026;-82
2023/01/08 05:04:35;;;;;;;51.47;26.40;;;6.10;99.90;;;;;;4982576;28;19941;-80
2023/01/08 05:07:00;;;;;;;;;;;5.90;99.90;;;;;;4983006;28;20015;-81
2023/01/08 05:09:26;;;;;;;55.47;26.15;;;5.70;99.90;;;;;;4966114;29;19918;-82
2023/01/08 05:11:52;;;;;;;;;;;5.80;99.90;;;;;;4966386;28;20038;-81
2023/01/08 05:14:18;;;;;;;56.05;26.95;;;5.80;99.90;;;;;;4965781;28;19900;-81
2023/01/08 05:16:43;;;;;;;;;;;5.80;99.90;;;;;;4982865;28;20051;-81
2023/01/08 05:19:09;;;;;;;53.20;26.77;;;5.80;99.90;;;;;;4982457;28;19894;-81
2023/01/08 05:21:35;;;;;;;;;;;5.90;99.90;;;;;;4982691;28;20007;-81
2023/01/08 05:24:01;;;;;;;54.90;26.42;;;5.90;99.90;;;;;;4982263;28;19945;-80
2023/01/08 05:26:26;;;;;;;;;;;5.80;99.90;;;;;;4982622;28;20019;-82
2023/01/08 05:28:52;;;;;;;50.80;26.15;;;5.90;99.90;;;;;;4965622;28;19895;-81
2023/01/08 05:31:18;;;;;;;;;;;5.90;99.90;;;;;;4965842;29;20035;-83
2023/01/08 05:33:44;;;;;;;53.58;26.40;;;5.80;99.90;;;;;;4982138;28;19906;-80
2023/01/08 05:36:10;;;;;;;;;;;5.90;99.90;;;;;;4982370;28;20016;-83
2023/01/08 05:38:36;;;;;;;50.08;25.63;;;5.90;99.90;;;;;;4965608;28;19945;-80
2023/01/08 05:41:03;;;;;;;53.20;27.00;;;5.80;99.90;;;;;;4981810;28;20027;-80
2023/01/08 05:43:29;;;;;;;55.00;29.13;;;5.80;99.90;;;;;;4965427;28;20031;-81
2023/01/08 05:45:57;;;;;;;;;;;5.80;99.90;;;;;;4982276;28;20020;-82
2023/01/08 05:48:22;;;;;;;52.95;28.42;;;5.90;99.90;;;;;;4981863;28;19897;-82
2023/01/08 05:50:49;;;;;;;;;;;5.80;99.90;;;;;;4965725;28;20079;-83
2023/01/08 05:53:15;;;;;;;60.10;29.92;;;5.80;99.90;;;;;;4981841;28;19895;-80
2023/01/08 06:38:20;;;;;;;113.00;50.47;;;5.70;99.90;;;;;;5947594;23;20300;-81
2023/01/08 06:40:46;;;;;;;83.97;39.90;;;5.60;99.90;;;;;;4938217;29;20068;-83
2023/01/08 06:43:16;;;;;;;95.18;37.53;;;5.50;99.90;;;;;;4940904;29;20047;-82
2023/01/08 06:45:42;;;;;;;87.28;38.15;;;5.50;99.90;;;;;;4941678;29;20093;-83
2023/01/08 06:48:12;;;;;;;83.97;38.90;;;5.40;99.90;;;;;;4942083;29;20036;-82
2023/01/08 06:50:38;;;;;;;84.80;36.35;;;5.30;99.90;;;;;;4942744;29;20012;-82
2023/01/08 06:53:03;;;;;;;;;;;5.30;99.90;;;;;;4942853;29;20016;-83
2023/01/08 06:55:29;;;;;;;68.97;34.53;;;5.40;99.90;;;;;;4926268;29;19896;-81
2023/01/08 06:57:56;;;;;;;;;;;5.50;99.90;;;;;;4926609;29;20027;-82
2023/01/08 07:00:22;;;;;;;68.13;30.57;;;5.60;99.90;;;;;;4926000;29;19895;-85
2023/01/08 07:02:52;;;;;;;66.38;32.60;;;5.60;99.90;;;;;;4942134;29;20023;-82
2023/01/08 07:05:18;;;;;;;66.93;31.48;;;5.50;99.90;;;;;;4942216;29;20024;-82
2023/01/08 07:07:44;;;;;;;55.45;29.20;;;5.50;99.90;;;;;;4942092;29;20012;-83
2023/01/08 07:10:10;;;;;;;;;;;5.50;99.90;;;;;;4926269;29;20036;-84
2023/01/08 07:12:36;;;;;;;47.75;26.42;;;5.50;99.90;;;;;;4942202;29;19992;-84
2023/01/08 07:15:01;;;;;;;;;;;5.60;99.90;;;;;;4942402;29;20008;-83
2023/01/08 07:17:27;;;;;;;55.40;28.90;;;5.90;99.90;;;;;;4942004;28;19962;-84
2023/01/08 07:19:53;;;;;;;;;;;5.80;99.90;;;;;;4926217;29;20027;-81
2023/01/08 07:22:19;;;;;;;54.55;29.55;;;5.80;99.90;;;;;;4925792;29;19902;-81
2023/01/08 07:24:45;;;;;;;58.92;30.20;;;5.60;99.90;;;;;;4925789;29;20024;-82
2023/01/08 07:27:14;;;;;;;;;;;5.60;99.90;;;;;;4925622;29;20039;-82
2023/01/08 07:29:40;;;;;;;69.30;30.73;;;5.70;99.90;;;;;;4925765;29;19902;-81
2023/01/08 07:32:06;;;;;;;;;;;5.70;99.90;;;;;;4942241;29;20016;-83
2023/01/08 07:34:33;;;;;;;80.10;40.50;;;5.60;99.90;;;;;;4941771;29;19987;-80
2023/01/08 07:36:59;;;;;;;63.47;32.83;;;5.50;99.90;;;;;;4942527;29;20004;-83
2023/01/08 07:39:25;;;;;;;53.25;27.23;;;5.40;99.90;;;;;;4945446;29;20080;-82
2023/01/08 07:41:51;;;;;;;;;;;5.80;99.90;;;;;;4945380;29;20016;-81
2023/01/08 07:44:17;;;;;;;64.18;30.45;;;5.80;99.90;;;;;;4945504;29;19907;-82
2023/01/08 07:46:42;;;;;;;;;;;5.50;99.90;;;;;;4946027;29;20012;-80
2023/01/08 07:49:08;;;;;;;63.60;30.80;;;5.60;99.90;;;;;;4945110;29;19895;-83
2023/01/08 07:51:34;;;;;;;;;;;5.50;99.90;;;;;;4944905;29;20098;-81
2023/01/08 08:15:10;;;;;;;118.90;33.75;;;5.10;99.90;;;;;;4974142;29;20051;-82
2023/01/08 08:17:36;;;;;;;;;;;5.00;99.90;;;;;;4982485;28;20047;-81
2023/01/08 08:20:02;;;;;;;106.70;37.55;;;5.00;99.90;;;;;;4965578;29;19922;-82
2023/01/08 08:22:27;;;;;;;;;;;4.90;99.90;;;;;;4982735;28;20016;-83
2023/01/08 08:24:53;;;;;;;90.90;34.80;;;4.90;99.90;;;;;;4982272;28;19986;-83
2023/01/08 08:27:18;;;;;;;;;;;4.90;99.90;;;;;;4982849;28;20028;-84
2023/01/08 08:29:44;;;;;;;102.05;41.80;;;4.90;99.90;;;;;;4965979;29;19922;-82
2023/01/08 08:32:10;;;;;;;;;;;4.80;99.90;;;;;;4982886;28;20008;-84
2023/01/08 08:34:35;;;;;;;80.43;38.20;;;4.80;99.90;;;;;;4965909;28;19902;-82
2023/01/08 08:37:01;;;;;;;;;;;4.90;99.90;;;;;;4982702;28;20066;-82
2023/01/08 08:39:26;;;;;;;77.25;34.90;;;4.90;99.90;;;;;;4965603;29;19918;-82
2023/01/08 08:41:52;;;;;;;;;;;4.80;99.90;;;;;;4983140;28;20087;-83
2023/01/08 08:44:18;;;;;;;66.22;32.67;;;4.90;99.90;;;;;;4966330;29;19902;-83
2023/01/08 08:46:43;;;;;;;;;;;5.00;99.90;;;;;;4982936;28;20026;-83
2023/01/08 08:49:09;;;;;;;46.17;25.80;;;5.20;99.90;;;;;;4964154;28;19901;-82
2023/01/08 08:51:34;;;;;;;;;;;5.20;99.90;;;;;;4981887;28;20056;-84
2023/01/08 09:29:37;;;;;;;55.15;29.60;;;5.60;99.90;;;;;;6060945;23;20014;31
2023/01/08 09:32:06;;;;;;;61.90;29.70;;;5.70;99.90;;;;;;4901637;29;20093;-83
2023/01/08 09:34:32;;;;;;;52.58;28.23;;;5.60;99.90;;;;;;4905123;29;20021;-82
2023/01/08 09:36:58;;;;;;;52.75;27.55;;;5.80;99.90;;;;;;4904170;29;20036;-82
2023/01/08 09:39:23;;;;;;;;;;;5.90;99.90;;;;;;4888331;29;20033;-83
2023/01/08 09:41:51;;;;;;;55.45;25.40;;;6.00;99.90;;;;;;4903978;29;19912;-84
2023/01/08 09:44:22;;;;;;;54.55;31.23;;;6.00;99.90;;;;;;4887432;29;20047;-83
2023/01/08 09:46:48;;;;;;;56.72;29.95;;;6.00;99.90;;;;;;4902341;29;20060;-82
2023/01/08 09:49:21;;;;;;;58.00;32.72;;;6.00;99.90;;;;;;4903530;29;20056;-82
2023/01/08 09:51:47;;;;;;;52.40;30.05;;;5.90;99.90;;;;;;4887748;29;20017;-82
2023/01/08 09:54:14;;;;;;;;;;;5.60;99.90;;;;;;4904240;29;20044;-83
2023/01/08 09:56:40;;;;;;;66.93;37.90;;;6.00;99.90;;;;;;4904164;29;19919;-82
2023/01/08 09:59:06;;;;;;;;;;;6.00;99.90;;;;;;4888546;29;20025;-83
2023/01/08 10:01:37;;;;;;;49.72;27.50;;;5.70;99.90;;;;;;4903395;29;19916;-83
2023/01/08 10:04:11;;;;;;;51.78;27.63;;;6.30;99.90;;;;;;4902310;29;20032;-84
2023/01/08 10:06:39;;;;;;;52.17;27.95;;;6.30;99.90;;;;;;4887086;29;20017;-84
2023/01/08 10:09:05;;;;;;;54.90;28.17;;;6.30;99.90;;;;;;4902974;29;20041;-83
2023/01/08 10:11:34;;;;;;;;;;;6.20;99.90;;;;;;4886866;29;20009;-82
2023/01/08 10:14:01;;;;;;;56.60;29.35;;;6.20;99.90;;;;;;4903141;29;19898;-83
2023/01/08 10:16:29;;;;;;;54.83;30.60;;;6.10;99.90;;;;;;4921463;29;20052;-83
2023/01/08 10:18:56;;;;;;;56.10;29.63;;;6.00;99.90;;;;;;4921852;29;20036;-84
2023/01/08 10:21:30;;;;;;;53.20;27.90;;;5.70;99.90;;;;;;4905853;29;20021;-83
2023/01/08 10:23:55;;;;;;;56.95;30.58;;;6.20;99.90;;;;;;4906098;29;20028;-82
2023/01/08 10:26:26;;;;;;;;;;;6.10;99.90;;;;;;4922676;29;20081;-82
2023/01/08 10:29:07;;;;;;;201.32;99.53;;;5.90;99.90;;;;;;4922623;29;19920;-84
2023/01/08 10:31:33;;;;;;;176.50;106.97;;;5.90;99.90;;;;;;4905923;29;20032;-83
2023/01/08 10:34:09;;;;;;;82.63;52.10;;;5.90;99.90;;;;;;4922140;29;20024;-82
2023/01/08 10:36:40;;;;;;;56.88;29.80;;;6.10;99.90;;;;;;4922156;29;20025;-83
2023/01/08 10:39:06;;;;;;;63.60;36.85;;;6.10;99.90;;;;;;4921377;29;20017;-81
2023/01/08 10:41:38;;;;;;;46.95;27.10;;;6.10;99.90;;;;;;4921905;29;20060;-83
2023/01/08 10:44:13;;;;;;;48.17;28.17;;;6.10;99.90;;;;;;4906014;29;20060;-82
2023/01/08 10:46:47;;;;;;;53.33;26.75;;;6.10;99.90;;;;;;4905385;29;20052;-82
2023/01/08 10:49:35;;;;;;;45.88;27.27;;;6.20;99.90;;;;;;4905801;29;20013;-81
2023/01/08 10:52:01;;;;;;;55.90;30.85;;;6.00;99.90;;;;;;4910127;29;20069;-83
2023/01/08 10:54:36;;;;;;;49.83;27.40;;;6.00;99.90;;;;;;4906555;29;20017;-83
2023/01/08 10:57:22;;;;;;;47.78;28.92;;;6.30;99.90;;;;;;4906101;29;20044;-82
2023/01/08 10:59:48;;;;;;;46.55;27.38;;;6.30;99.90;;;;;;4922376;29;20012;-82
2023/01/08 11:02:34;;;;;;;;;;;6.30;99.90;;;;;;4906559;29;20020;-82
2023/01/08 11:05:01;;;;;;;69.35;46.38;;;6.30;99.90;;;;;;4905950;29;19899;-83
2023/01/08 11:07:27;;;;;;;48.53;29.88;;;6.30;99.90;;;;;;4906112;29;20040;-82
2023/01/08 11:09:54;;;;;;;58.00;33.13;;;6.40;99.90;;;;;;4922682;29;20008;-83
2023/01/08 11:12:35;;;;;;;49.10;29.80;;;6.30;99.90;;;;;;4907319;29;20048;-84
2023/01/08 11:15:06;;;;;;;50.85;30.08;;;6.40;99.90;;;;;;4909894;29;20029;-83
2023/01/08 11:17:33;;;;;;;53.72;32.33;;;6.50;99.90;;;;;;4925937;29;20017;-82
2023/01/08 11:20:18;;;;;;;97.43;59.60;;;6.40;99.90;;;;;;4926595;29;20061;-82
2023/01/08 11:22:44;;;;;;;56.20;32.55;;;6.40;99.90;;;;;;4926375;29;20005;-82
2023/01/08 11:25:17;;;;;;;;;;;6.50;99.90;;;;;;4925989;29;20052;-82
2023/01/08 11:27:44;;;;;;;51.13;29.67;;;6.60;99.90;;;;;;4925014;29;19891;-82
2023/01/08 11:30:18;;;;;;;95.57;52.78;;;6.70;99.90;;;;;;4909505;29;20052;-82
2023/01/08 11:33:09;;;;;;;116.43;58.17;;;6.70;99.90;;;;;;4925930;29;20037;-82
2023/01/08 11:35:58;;;;;;;58.03;33.00;;;6.60;99.90;;;;;;4925465;29;20017;-82
2023/01/08 11:38:24;;;;;;;53.50;34.95;;;6.50;99.90;;;;;;4925602;29;20013;-83
2023/01/08 11:40:51;;;;;;;;;;;6.50;99.90;;;;;;4926273;29;20068;-82
2023/01/08 11:43:39;;;;;;;53.20;31.92;;;6.40;99.90;;;;;;4925094;29;19923;-83
2023/01/08 11:46:37;;;;;;;58.30;34.58;;;6.40;99.90;;;;;;4909096;29;20031;-83
2023/01/08 11:49:15;;;;;;;;;;;6.50;99.90;;;;;;4909157;29;20017;-83
2023/01/08 11:52:08;;;;;;;67.50;40.00;;;6.10;99.90;;;;;;4924876;29;19916;-82
2023/01/08 11:55:05;;;;;;;61.15;36.22;;;6.30;99.90;;;;;;4925346;29;20017;-83
2023/01/08 11:57:44;;;;;;;58.28;34.63;;;6.30;99.90;;;;;;4924551;29;20045;-83
2023/01/08 12:00:16;;;;;;;57.22;33.90;;;6.40;99.90;;;;;;4908733;29;20024;-83
2023/01/08 12:02:50;;;;;;;60.22;36.78;;;6.40;99.90;;;;;;4924628;29;20060;-83
2023/01/08 12:05:28;;;;;;;64.22;38.60;;;6.40;99.90;;;;;;4908565;29;20088;-83
2023/01/08 12:08:03;;;;;;;89.20;43.47;;;6.40;99.90;;;;;;4925627;29;20018;-82
2023/01/08 12:10:54;;;;;;;82.25;48.10;;;6.40;99.90;;;;;;4925406;29;20062;-83
2023/01/08 12:13:25;;;;;;;90.18;51.53;;;6.40;99.90;;;;;;4924915;29;20021;-83
2023/01/08 12:16:15;;;;;;;63.70;38.60;;;6.50;99.90;;;;;;4908673;29;20041;-83
2023/01/08 12:19:14;;;;;;;94.10;51.38;;;6.00;99.90;;;;;;4909261;29;20013;-82
2023/01/08 12:22:15;;;;;;;97.20;55.53;;;6.40;99.90;;;;;;4926142;29;20029;-83
2023/01/08 12:24:50;;;;;;;72.70;42.03;;;6.60;99.90;;;;;;4908813;29;20082;-83
2023/01/08 12:28:01;;;;;;;59.20;34.00;;;6.50;99.90;;;;;;4926039;29;20016;-82
2023/01/08 12:30:30;;;;;;;99.68;56.45;;;6.60;99.90;;;;;;4925627;29;20045;-83
2023/01/08 12:33:17;;;;;;;64.55;37.45;;;6.50;99.90;;;;;;4925824;29;20013;-82
2023/01/08 12:35:52;;;;;;;;;;;6.50;99.90;;;;;;4909933;29;20021;-81
2023/01/08 12:38:38;;;;;;;62.47;37.67;;;6.60;99.90;;;;;;4909614;29;19896;-83
2023/01/08 12:41:16;;;;;;;69.60;38.40;;;6.60;99.90;;;;;;4909677;29;20021;-82
2023/01/08 12:43:45;;;;;;;57.58;35.55;;;6.60;99.90;;;;;;4904816;29;20065;-81
2023/01/08 12:46:15;;;;;;;58.97;35.10;;;6.70;99.90;;;;;;4909393;29;20074;-82
2023/01/08 12:48:44;;;;;;;56.05;32.80;;;6.70;99.90;;;;;;4925784;29;20072;-82
2023/01/08 13:41:55;;;;;;;128.77;96.25;;;6.80;99.90;;;;;;5152212;23;20067;-82
2023/01/08 13:44:33;;;;;;;68.65;45.22;;;6.80;99.90;;;;;;4939955;29;20032;-83
2023/01/08 13:47:14;;;;;;;65.22;36.03;;;6.70;99.90;;;;;;4942136;29;20023;-83
2023/01/08 13:49:50;;;;;;;58.63;35.15;;;6.80;99.90;;;;;;4942215;29;20016;-82
2023/01/08 13:52:42;;;;;;;61.22;37.28;;;6.90;99.90;;;;;;4941366;29;20035;-82
2023/01/08 13:55:34;;;;;;;59.22;35.17;;;6.70;99.90;;;;;;4925632;29;20028;-82
2023/01/08 13:58:07;;;;;;;56.63;35.28;;;6.90;99.90;;;;;;4941318;29;20060;-82
2023/01/08 14:00:46;;;;;;;58.72;36.38;;;6.90;99.90;;;;;;4941448;29;20036;-83
2023/01/08 14:03:30;;;;;;;44.10;25.38;;;6.90;99.90;;;;;;4940818;29;20020;-83
2023/01/08 14:06:25;;;;;;;60.88;34.97;;;6.40;99.90;;;;;;4941338;29;20084;-82
2023/01/08 14:09:02;;;;;;;59.17;33.70;;;6.80;99.90;;;;;;4941249;29;20028;-83
2023/01/08 14:11:46;;;;;;;74.95;40.85;;;6.80;99.90;;;;;;4941066;29;20012;-84
2023/01/08 14:14:14;;;;;;;64.57;38.75;;;6.70;99.90;;;;;;4923789;29;20023;-82
2023/01/08 14:16:41;;;;;;;66.13;38.20;;;6.20;99.90;;;;;;4924479;29;20020;-82
2023/01/08 14:19:07;;;;;;;56.75;32.60;;;6.70;99.90;;;;;;4940085;29;20039;-83
2023/01/08 14:21:34;;;;;;;64.63;32.50;;;6.80;99.90;;;;;;4940996;29;20036;-83
2023/01/08 14:24:00;;;;;;;70.25;38.97;;;6.70;99.90;;;;;;4924704;29;20108;-83
2023/01/08 14:26:37;;;;;;;66.53;35.50;;;6.70;99.90;;;;;;4923816;29;20039;-83
2023/01/08 14:29:19;;;;;;;69.03;39.00;;;6.70;99.90;;;;;;4939435;29;20024;-82
2023/01/08 14:31:47;;;;;;;69.55;39.90;;;6.40;99.90;;;;;;4940372;29;20060;-82
2023/01/08 14:34:14;;;;;;;72.72;41.03;;;5.70;99.90;;;;;;4940826;29;20036;-83
2023/01/08 14:36:41;;;;;;;70.68;39.20;;;6.60;99.90;;;;;;4939590;29;20043;-82
2023/01/08 14:39:20;;;;;;;75.20;44.58;;;6.70;99.90;;;;;;4940052;29;20091;-83
2023/01/08 14:44:34;;;;;;;86.72;47.60;;;6.70;99.90;;;;;;4978464;29;20046;-82
2023/01/08 14:47:00;;;;;;;77.57;43.78;;;6.60;99.90;;;;;;4977786;28;20570;-82
2023/01/08 14:49:33;;;;;;;74.93;41.65;;;6.70;99.90;;;;;;4979340;28;20027;-82
2023/01/08 14:52:00;;;;;;;69.60;38.25;;;6.80;99.90;;;;;;4978809;29;20059;-83
2023/01/08 14:54:34;;;;;;;73.97;40.92;;;6.70;99.90;;;;;;4962427;28;20011;-82
2023/01/08 14:57:01;;;;;;;66.60;41.33;;;6.80;99.90;;;;;;4979162;28;20015;-83
2023/01/08 14:59:36;;;;;;;70.85;42.00;;;6.90;99.90;;;;;;4979142;29;20012;-83
2023/01/08 15:02:05;;;;;;;86.82;51.08;;;6.90;99.90;;;;;;4962639;29;20023;-85
2023/01/08 15:04:31;;;;;;;69.00;41.17;;;7.00;99.90;;;;;;4978872;29;20042;-83
2023/01/08 15:07:08;;;;;;;;;;;6.90;99.90;;;;;;4979718;28;20035;-83
2023/01/08 15:09:35;;;;;;;77.88;44.60;;;6.90;99.90;;;;;;4961971;29;19902;-82
2023/01/08 15:12:03;;;;;;;103.00;58.20;;;6.90;99.90;;;;;;4978441;28;20042;-82
2023/01/08 15:14:32;;;;;;;103.80;56.30;;;6.80;99.90;;;;;;4962532;28;20034;-83
2023/01/08 15:17:15;;;;;;;77.93;43.03;;;6.80;99.90;;;;;;4961664;29;20031;-82
2023/01/08 15:19:48;;;;;;;72.03;41.80;;;7.00;99.90;;;;;;4978733;28;20024;-84
2023/01/08 15:22:20;;;;;;;75.55;42.35;;;7.00;99.90;;;;;;4978516;29;20051;-83
2023/01/08 15:25:01;;;;;;;74.25;41.83;;;7.00;99.90;;;;;;4961699;29;20047;-84
2023/01/08 15:27:30;;;;;;;79.15;46.88;;;6.90;99.90;;;;;;4962605;29;20045;-84
2023/01/08 15:29:59;;;;;;;85.60;51.35;;;6.90;99.90;;;;;;4962222;29;20051;-82
2023/01/08 15:32:30;;;;;;;69.43;41.28;;;7.00;99.90;;;;;;4962293;28;20027;-83
2023/01/08 15:34:56;;;;;;;66.47;39.83;;;7.30;99.90;;;;;;4962523;29;20035;-83
2023/01/08 15:37:22;;;;;;;69.95;38.83;;;7.20;99.90;;;;;;4962434;28;20042;-82
2023/01/08 15:39:47;;;;;;;;;;;7.20;99.90;;;;;;4979019;29;20028;-83
2023/01/08 15:45:16;;;;;;;80.22;47.05;;;7.20;99.90;;;;;;4978902;28;20034;-82
2023/01/08 15:47:42;;;;;;;78.82;46.70;;;7.00;99.90;;;;;;4962364;29;20027;-83
2023/01/08 15:50:08;;;;;;;;;;;7.00;99.90;;;;;;4963307;29;20551;-84
2023/01/08 15:52:37;;;;;;;69.47;39.78;;;7.00;99.90;;;;;;4979616;28;19981;-83
2023/01/08 15:55:04;;;;;;;77.80;40.50;;;7.10;99.90;;;;;;4978875;28;20039;-83
2023/01/08 15:57:30;;;;;;;79.47;42.70;;;7.10;99.90;;;;;;4978661;28;20550;-83
2023/01/08 15:59:56;;;;;;;;;;;7.30;99.90;;;;;;4982069;28;20074;-82
2023/01/08 16:02:22;;;;;;;82.63;45.50;;;7.10;99.90;;;;;;4981673;28;19907;-83
2023/01/08 16:04:52;;;;;;;104.28;58.28;;;7.20;99.90;;;;;;4981717;28;20098;-83
2023/01/08 16:07:19;;;;;;;421.08;222.48;;;7.10;99.90;;;;;;4965949;29;20016;-82
2023/01/08 16:09:45;;;;;;;107.35;64.38;;;7.10;99.90;;;;;;4982658;28;20031;-83
2023/01/08 16:12:11;;;;;;;;;;;7.20;99.90;;;;;;4966399;29;20038;-83
2023/01/08 16:14:37;;;;;;;77.55;46.92;;;7.30;99.90;;;;;;4965790;29;19895;-83
2023/01/08 16:17:03;;;;;;;;;;;7.40;99.90;;;;;;4982886;28;20038;-82
2023/01/08 16:19:30;;;;;;;79.80;50.00;;;7.30;99.90;;;;;;4981736;29;19906;-83
2023/01/08 16:21:57;;;;;;;88.50;54.97;;;7.20;99.90;;;;;;4965176;28;20027;-83
2023/01/08 16:24:23;;;;;;;90.20;53.22;;;7.10;99.90;;;;;;4982519;29;20019;-83
2023/01/08 16:26:48;;;;;;;;;;;7.10;99.90;;;;;;4982270;29;20106;-82
2023/01/08 16:29:14;;;;;;;79.78;45.35;;;7.10;99.90;;;;;;4982085;29;19914;-84
2023/01/08 16:31:46;;;;;;;78.78;47.80;;;7.30;99.90;;;;;;4981627;29;20003;-82
2023/01/08 16:34:12;;;;;;;77.85;49.35;;;7.40;99.90;;;;;;4964573;29;20031;-84
2023/01/08 16:36:38;;;;;;;80.70;51.28;;;7.40;99.90;;;;;;4980868;29;20023;-83
2023/01/08 16:39:05;;;;;;;82.15;52.10;;;7.50;99.90;;;;;;4964906;28;20035;-83
2023/01/08 16:41:31;;;;;;;78.10;45.55;;;7.30;99.90;;;;;;4981865;28;20020;-82
2023/01/08 16:43:57;;;;;;;;;;;7.20;99.90;;;;;;4965028;29;20067;-80
2023/01/08 16:46:23;;;;;;;89.32;49.17;;;7.40;99.90;;;;;;4964288;29;19898;-83
2023/01/08 16:48:49;;;;;;;;;;;7.40;99.90;;;;;;4982206;28;20046;-83
2023/01/08 16:51:15;;;;;;;81.78;50.88;;;7.20;99.90;;;;;;4980712;29;19917;-83
2023/01/08 16:53:42;;;;;;;81.93;52.30;;;7.40;99.90;;;;;;4981059;29;20034;-83
2023/01/08 16:56:09;;;;;;;82.20;52.10;;;7.30;99.90;;;;;;4980882;28;20019;-82
2023/01/08 16:58:35;;;;;;;83.32;51.40;;;7.40;99.90;;;;;;4964623;29;20099;-82
2023/01/08 17:01:06;;;;;;;78.35;49.30;;;7.50;99.90;;;;;;4981632;29;20023;-83
2023/01/08 17:03:32;;;;;;;81.95;52.70;;;7.30;99.90;;;;;;4981106;29;20031;-84
2023/01/08 17:06:03;;;;;;;85.25;53.40;;;7.30;99.90;;;;;;4965144;29;20019;-83
2023/01/08 17:08:29;;;;;;;76.57;48.15;;;7.40;99.90;;;;;;4964697;28;20023;-82
2023/01/08 17:10:55;;;;;;;;;;;7.40;99.90;;;;;;4980819;28;20035;-83
2023/01/08 17:13:21;;;;;;;80.32;50.13;;;7.50;99.90;;;;;;4981139;28;19902;-82
2023/01/08 17:15:46;;;;;;;;;;;7.40;99.90;;;;;;4964987;29;20110;-82
2023/01/08 17:18:12;;;;;;;95.47;55.13;;;7.40;99.90;;;;;;4981409;28;19894;-82
2023/01/08 17:20:38;;;;;;;;;;;7.40;99.90;;;;;;4965201;28;20015;-83
2023/01/08 17:23:04;;;;;;;75.18;51.70;;;7.40;99.90;;;;;;4981690;28;19905;-82
2023/01/08 17:25:30;;;;;;;;;;;7.40;99.90;;;;;;4964682;28;20047;-82
2023/01/08 17:27:56;;;;;;;106.78;66.97;;;7.40;99.90;;;;;;4981199;29;19894;-80
2023/01/08 17:30:22;;;;;;;;;;;7.50;99.90;;;;;;4964390;29;20015;-83
2023/01/08 17:32:48;;;;;;;89.07;52.47;;;7.50;99.90;;;;;;4963580;29;19913;-82
2023/01/08 17:35:14;;;;;;;;;;;7.60;99.90;;;;;;4963638;29;20020;-83
2023/01/08 17:37:40;;;;;;;83.30;51.65;;;7.50;99.90;;;;;;4980612;28;19895;-83
2023/01/08 17:40:06;;;;;;;;;;;7.50;99.90;;;;;;4964053;29;20027;-82
2023/01/08 17:42:32;;;;;;;90.13;52.05;;;7.40;99.90;;;;;;4979951;28;19917;-82
2023/01/08 17:45:01;;;;;;;79.90;51.20;;;7.40;99.90;;;;;;4979856;28;20047;-81
2023/01/08 17:47:36;;;;;;;80.68;49.08;;;7.50;99.90;;;;;;4979632;29;20042;-80
2023/01/08 17:50:04;;;;;;;81.82;50.22;;;7.40;99.90;;;;;;4980353;29;20003;-82
2023/01/08 17:52:31;;;;;;;80.68;51.65;;;7.60;99.90;;;;;;4980772;28;20012;-82